Time,TemperatureF,DewpointF,PressureIn,WindDirection,WindDirectionDegrees,WindSpeedMPH,WindSpeedGustMPH,Humidity,HourlyPrecipIn,Conditions,Clouds,dailyrainin,SoftwareType,DateUTC
2013-04-23 00:17:00,47.4,32.0,30.30,North,352,4.0,17.0,55,0.00,,,0.00,weatherlink.com 1.10,2013-04-23 04:17:00,
2013-04-23 00:35:00,46.9,32.0,30.29,West,276,4.0,12.0,57,0.00,,,0.00,weatherlink.com 1.10,2013-04-23 04:35:00,
2013-04-23 00:55:00,46.3,32.0,30.29,WSW,257,7.0,11.0,58,0.00,,,0.00,weatherlink.com 1.10,2013-04-23 04:55:00,
2013-04-23 01:13:00,45.9,32.0,30.29,West,271,2.0,12.0,59,0.00,,,0.00,weatherlink.com 1.10,2013-04-23 05:13:00,
2013-04-23 01:31:00,45.6,33.0,30.29,NNW,331,7.0,20.0,61,0.00,,,0.00,weatherlink.com 1.10,2013-04-23 05:31:00,
2013-04-23 01:51:00,45.2,33.0,30.28,WNW,284,5.0,14.0,62,0.00,,,0.00,weatherlink.com 1.10,2013-04-23 05:51:00,
2013-04-23 02:09:00,44.6,33.0,30.27,WNW,302,8.0,14.0,63,0.00,,,0.00,weatherlink.com 1.10,2013-04-23 06:09:00,
2013-04-23 02:27:00,44.2,33.0,30.27,NW,316,5.0,15.0,64,0.00,,,0.00,weatherlink.com 1.10,2013-04-23 06:27:00,
2013-04-23 02:45:00,43.8,33.0,30.27,West,273,5.0,18.0,65,0.00,,,0.00,weatherlink.com 1.10,2013-04-23 06:45:00,
2013-04-23 03:05:00,43.3,33.0,30.26,NW,315,8.0,18.0,67,0.00,,,0.00,weatherlink.com 1.10,2013-04-23 07:05:00,
2013-04-23 03:23:00,42.9,33.0,30.26,NW,315,10.0,14.0,67,0.00,,,0.00,weatherlink.com 1.10,2013-04-23 07:23:00,
2013-04-23 03:41:00,42.7,33.0,30.26,West,276,3.0,14.0,68,0.00,,,0.00,weatherlink.com 1.10,2013-04-23 07:41:00,
2013-04-23 04:01:00,42.4,33.0,30.26,West,264,3.0,12.0,69,0.00,,,0.00,weatherlink.com 1.10,2013-04-23 08:01:00,
2013-04-23 04:19:00,42.2,33.0,30.26,WNW,282,3.0,10.0,69,0.00,,,0.00,weatherlink.com 1.10,2013-04-23 08:19:00,
2013-04-23 04:37:00,41.9,33.0,30.25,NNW,327,5.0,17.0,70,0.00,,,0.00,weatherlink.com 1.10,2013-04-23 08:37:00,
2013-04-23 04:57:00,41.8,33.0,30.25,WNW,294,3.0,12.0,70,0.00,,,0.00,weatherlink.com 1.10,2013-04-23 08:57:00,
2013-04-23 05:17:00,41.5,33.0,30.25,NW,313,11.0,11.0,71,0.00,,,0.00,weatherlink.com 1.10,2013-04-23 09:17:00,
2013-04-23 05:33:00,41.4,33.0,30.24,NW,307,4.0,13.0,71,0.00,,,0.00,weatherlink.com 1.10,2013-04-23 09:33:00,
2013-04-23 05:53:00,41.2,33.0,30.24,NW,311,4.0,8.0,72,0.00,,,0.00,weatherlink.com 1.10,2013-04-23 09:53:00,
2013-04-23 06:11:00,41.0,33.0,30.25,NW,323,1.0,5.0,72,0.00,,,0.00,weatherlink.com 1.10,2013-04-23 10:11:00,
2013-04-23 06:29:00,40.8,32.0,30.25,ESE,107,2.0,11.0,72,0.00,,,0.00,weatherlink.com 1.10,2013-04-23 10:29:00,
2013-04-23 06:47:00,41.1,33.0,30.25,NE,44,2.0,5.0,72,0.00,,,0.00,weatherlink.com 1.10,2013-04-23 10:47:00,
2013-04-23 07:07:00,41.8,33.0,30.25,ESE,122,3.0,5.0,71,0.00,,,0.00,weatherlink.com 1.10,2013-04-23 11:07:00,
2013-04-23 07:25:00,42.6,33.0,30.25,ESE,120,0.0,5.0,69,0.00,,,0.00,weatherlink.com 1.10,2013-04-23 11:25:00,
2013-04-23 07:43:00,43.6,34.0,30.25,NE,54,1.0,7.0,68,0.00,,,0.00,weatherlink.com 1.10,2013-04-23 11:43:00,
2013-04-23 08:03:00,45.6,34.0,30.25,WSW,243,1.0,7.0,64,0.00,,,0.00,weatherlink.com 1.10,2013-04-23 12:03:00,
2013-04-23 08:21:00,47.1,34.0,30.25,SE,143,1.0,5.0,61,0.00,,,0.00,weatherlink.com 1.10,2013-04-23 12:21:00,
2013-04-23 08:39:00,47.8,34.0,30.24,West,267,3.0,6.0,60,0.00,,,0.00,weatherlink.com 1.10,2013-04-23 12:39:00,
2013-04-23 08:58:00,49.5,34.0,30.23,NNE,16,3.0,6.0,56,0.00,,,0.00,weatherlink.com 1.10,2013-04-23 12:58:00,
2013-04-23 09:16:00,51.4,35.0,30.21,WNW,291,0.0,4.0,53,0.00,,,0.00,weatherlink.com 1.10,2013-04-23 13:16:00,
2013-04-23 09:34:00,51.9,35.0,30.21,ENE,63,6.0,7.0,52,0.00,,,0.00,weatherlink.com 1.10,2013-04-23 13:34:00,
2013-04-23 09:54:00,53.3,34.0,30.21,ENE,63,2.0,6.0,49,0.00,,,0.00,weatherlink.com 1.10,2013-04-23 13:54:00,
2013-04-23 10:12:00,55.8,35.0,30.21,NNW,328,2.0,7.0,46,0.00,,,0.00,weatherlink.com 1.10,2013-04-23 14:12:00,
2013-04-23 10:30:00,56.8,37.0,30.21,NW,321,2.0,4.0,48,0.00,,,0.00,weatherlink.com 1.10,2013-04-23 14:30:00,
2013-04-23 10:50:00,58.6,35.0,30.20,NW,306,2.0,4.0,42,0.00,,,0.00,weatherlink.com 1.10,2013-04-23 14:50:00,
2013-04-23 11:08:00,59.1,35.0,30.20,NW,317,2.0,6.0,41,0.00,,,0.00,weatherlink.com 1.10,2013-04-23 15:08:00,
2013-04-23 11:26:00,60.1,35.0,30.19,SSE,167,1.0,6.0,39,0.00,,,0.00,weatherlink.com 1.10,2013-04-23 15:26:00,
2013-04-23 11:42:00,60.6,35.0,30.21,SE,124,2.0,6.0,39,0.00,,,0.00,weatherlink.com 1.10,2013-04-23 15:42:00,
2013-04-23 11:57:00,60.5,35.0,30.20,SSE,153,5.0,10.0,39,0.00,,,0.00,weatherlink.com 1.10,2013-04-23 15:57:00,
2013-04-23 12:12:00,62.0,38.0,30.20,SE,142,7.0,8.0,42,0.00,,,0.00,weatherlink.com 1.10,2013-04-23 16:12:00,
2013-04-23 12:27:00,62.6,35.0,30.19,SE,140,3.0,7.0,36,0.00,,,0.00,weatherlink.com 1.10,2013-04-23 16:27:00,
2013-04-23 12:42:00,62.5,35.0,30.18,SE,143,4.0,8.0,36,0.00,,,0.00,weatherlink.com 1.10,2013-04-23 16:42:00,
2013-04-23 12:57:00,63.6,33.0,30.18,SSE,159,2.0,6.0,32,0.00,,,0.00,weatherlink.com 1.10,2013-04-23 16:57:00,
2013-04-23 13:12:00,64.1,36.0,30.18,SE,129,3.0,7.0,36,0.00,,,0.00,weatherlink.com 1.10,2013-04-23 17:12:00,
2013-04-23 13:27:00,64.5,37.0,30.16,SE,138,1.0,7.0,36,0.00,,,0.00,weatherlink.com 1.10,2013-04-23 17:27:00,
2013-04-23 13:42:00,66.2,35.0,30.15,East,97,1.0,7.0,32,0.00,,,0.00,weatherlink.com 1.10,2013-04-23 17:42:00,
2013-04-23 13:57:00,65.5,36.0,30.14,SE,146,3.0,5.0,33,0.00,,,0.00,weatherlink.com 1.10,2013-04-23 17:57:00,
2013-04-23 14:12:00,65.8,33.0,30.13,SE,131,1.0,7.0,30,0.00,,,0.00,weatherlink.com 1.10,2013-04-23 18:12:00,
2013-04-23 14:27:00,66.7,36.0,30.12,South,181,0.0,4.0,32,0.00,,,0.00,weatherlink.com 1.10,2013-04-23 18:27:00,
2013-04-23 14:42:00,68.4,35.0,30.11,NE,47,3.0,4.0,29,0.00,,,0.00,weatherlink.com 1.10,2013-04-23 18:42:00,
2013-04-23 14:57:00,68.0,32.0,30.10,SSE,150,4.0,7.0,26,0.00,,,0.00,weatherlink.com 1.10,2013-04-23 18:57:00,
2013-04-23 15:12:00,68.7,32.0,30.09,SE,134,5.0,5.0,26,0.00,,,0.00,weatherlink.com 1.10,2013-04-23 19:12:00,
2013-04-23 15:27:00,68.0,32.0,30.08,South,181,1.0,6.0,26,0.00,,,0.00,weatherlink.com 1.10,2013-04-23 19:27:00,
2013-04-23 15:42:00,68.6,37.0,30.07,SE,129,1.0,5.0,32,0.00,,,0.00,weatherlink.com 1.10,2013-04-23 19:42:00,
2013-04-23 15:57:00,68.6,33.0,30.06,South,171,3.0,6.0,27,0.00,,,0.00,weatherlink.com 1.10,2013-04-23 19:57:00,
2013-04-23 16:12:00,69.6,33.0,30.06,SSW,203,2.0,6.0,26,0.00,,,0.00,weatherlink.com 1.10,2013-04-23 20:12:00,
2013-04-23 16:27:00,69.1,35.0,30.05,ESE,114,5.0,11.0,28,0.00,,,0.00,weatherlink.com 1.10,2013-04-23 20:27:00,
2013-04-23 16:43:00,69.5,34.0,30.05,SE,135,6.0,8.0,27,0.00,,,0.00,weatherlink.com 1.10,2013-04-23 20:43:00,
2013-04-23 16:58:00,70.0,34.0,30.05,ESE,114,4.0,9.0,27,0.00,,,0.00,weatherlink.com 1.10,2013-04-23 20:58:00,
2013-04-23 17:13:00,70.3,36.0,30.04,SSW,193,4.0,8.0,28,0.00,,,0.00,weatherlink.com 1.10,2013-04-23 21:13:00,
2013-04-23 17:28:00,69.4,34.0,30.04,SE,136,1.0,7.0,27,0.00,,,0.00,weatherlink.com 1.10,2013-04-23 21:28:00,
2013-04-23 17:43:00,69.1,34.0,30.04,East,88,1.0,5.0,27,0.00,,,0.00,weatherlink.com 1.10,2013-04-23 21:43:00,
2013-04-23 18:00:00,68.9,33.0,30.03,ESE,120,2.0,5.0,27,0.00,,,0.00,weatherlink.com 1.10,2013-04-23 22:00:00,
2013-04-23 18:18:00,70.6,34.0,30.03,East,81,1.0,3.0,26,0.00,,,0.00,weatherlink.com 1.10,2013-04-23 22:18:00,
2013-04-23 18:36:00,69.5,32.0,30.03,ESE,105,0.0,2.0,25,0.00,,,0.00,weatherlink.com 1.10,2013-04-23 22:36:00,
2013-04-23 18:56:00,67.7,33.0,30.03,ESE,113,0.0,1.0,28,0.00,,,0.00,weatherlink.com 1.10,2013-04-23 22:56:00,
2013-04-23 19:14:00,66.8,33.0,30.03,ESE,113,0.0,1.0,29,0.00,,,0.00,weatherlink.com 1.10,2013-04-23 23:14:00,
2013-04-23 19:32:00,65.7,34.0,30.03,NE,44,0.0,1.0,31,0.00,,,0.00,weatherlink.com 1.10,2013-04-23 23:32:00,
2013-04-23 19:50:00,64.3,37.0,30.03,West,278,3.0,4.0,36,0.00,,,0.00,weatherlink.com 1.10,2013-04-23 23:50:00,
2013-04-23 20:10:00,63.7,38.0,30.02,WNW,301,5.0,9.0,39,0.00,,,0.00,weatherlink.com 1.10,2013-04-24 00:10:00,
2013-04-23 20:28:00,62.8,39.0,30.02,WNW,283,3.0,11.0,41,0.00,,,0.00,weatherlink.com 1.10,2013-04-24 00:28:00,
2013-04-23 20:46:00,62.0,38.0,30.02,WSW,245,6.0,7.0,42,0.00,,,0.00,weatherlink.com 1.10,2013-04-24 00:46:00,
2013-04-23 21:06:00,61.2,38.0,30.02,WNW,301,3.0,11.0,43,0.00,,,0.00,weatherlink.com 1.10,2013-04-24 01:06:00,
2013-04-23 21:24:00,60.6,40.0,30.02,NW,324,7.0,10.0,46,0.00,,,0.00,weatherlink.com 1.10,2013-04-24 01:24:00,
2013-04-23 21:42:00,59.5,40.0,30.01,NNW,332,3.0,11.0,49,0.00,,,0.00,weatherlink.com 1.10,2013-04-24 01:42:00,
2013-04-23 22:00:00,58.6,40.0,30.00,WNW,282,5.0,10.0,51,0.00,,,0.00,weatherlink.com 1.10,2013-04-24 02:00:00,
2013-04-23 22:20:00,57.8,40.0,30.00,NW,311,6.0,13.0,52,0.00,,,0.00,weatherlink.com 1.10,2013-04-24 02:20:00,
2013-04-23 22:38:00,57.2,40.0,30.00,West,273,2.0,12.0,54,0.00,,,0.00,weatherlink.com 1.10,2013-04-24 02:38:00,
2013-04-23 22:56:00,56.8,40.0,29.99,West,277,7.0,13.0,54,0.00,,,0.00,weatherlink.com 1.10,2013-04-24 02:56:00,
2013-04-23 23:16:00,56.1,40.0,29.98,WNW,301,5.0,14.0,56,0.00,,,0.00,weatherlink.com 1.10,2013-04-24 03:16:00,
2013-04-23 23:34:00,55.6,40.0,29.98,NW,321,4.0,15.0,57,0.00,,,0.00,weatherlink.com 1.10,2013-04-24 03:34:00,
2013-04-23 23:52:00,55.4,40.0,29.98,NNW,338,9.0,14.0,57,0.00,,,0.00,weatherlink.com 1.10,2013-04-24 03:52:00,